createdAt,value
2018-08-04T00:00:09.758Z,80.54
2018-08-04T00:02:39.587Z,79.91
2018-08-04T00:05:10.299Z,80.10
2018-08-04T00:07:40.336Z,80.28
2018-08-04T00:10:21.720Z,81.00
2018-08-04T00:12:52.144Z,80.79
2018-08-04T00:15:21.780Z,80.80
2018-08-04T00:17:51.253Z,81.09
2018-08-04T00:20:20.712Z,81.44
2018-08-04T00:22:50.125Z,81.63
2018-08-04T00:25:19.570Z,81.78
2018-08-04T00:27:49.051Z,81.39
2018-08-04T00:30:18.497Z,82.00
2018-08-04T00:32:47.962Z,81.40
2018-08-04T00:35:17.409Z,81.56
2018-08-04T00:37:46.894Z,81.56
2018-08-04T00:40:16.376Z,81.41
2018-08-04T00:42:45.874Z,81.69
2018-08-04T00:45:15.390Z,81.78
2018-08-04T00:47:44.813Z,82.09
2018-08-04T00:50:14.273Z,82.25
2018-08-04T00:52:43.736Z,82.62
2018-08-04T00:55:13.193Z,82.48
2018-08-04T00:57:42.816Z,82.75
2018-08-04T01:00:12.262Z,82.90
2018-08-04T01:02:41.705Z,82.78
2018-08-04T01:05:11.173Z,82.78
2018-08-04T01:07:40.571Z,83.41
2018-08-04T01:10:10.027Z,83.85
2018-08-04T01:12:39.501Z,83.21
2018-08-04T01:15:08.943Z,83.28
2018-08-04T01:17:38.446Z,83.56
2018-08-04T01:20:08.427Z,83.62
2018-08-04T01:22:37.926Z,83.75
2018-08-04T01:25:08.128Z,83.85
2018-08-04T01:27:37.572Z,83.49
2018-08-04T01:30:07.050Z,83.28
2018-08-04T01:32:36.471Z,83.81
2018-08-04T01:35:06.413Z,83.81
2018-08-04T01:37:36.176Z,83.43
2018-08-04T01:40:06.746Z,83.61
2018-08-04T01:42:36.142Z,84.02
2018-08-04T01:45:06.198Z,84.43
2018-08-04T01:47:35.662Z,83.75
2018-08-04T01:50:05.356Z,83.93
2018-08-04T01:52:34.838Z,84.01
2018-08-04T01:55:04.351Z,84.23
2018-08-04T01:57:33.751Z,84.20
2018-08-04T02:00:03.224Z,84.07
2018-08-04T02:02:32.693Z,84.28
2018-08-04T02:05:02.089Z,84.38
2018-08-04T02:07:31.699Z,83.99
2018-08-04T02:10:01.182Z,84.22
2018-08-04T02:12:30.676Z,85.08
2018-08-04T02:15:00.049Z,84.59
2018-08-04T02:17:29.476Z,84.99
2018-08-04T02:19:58.872Z,83.91
2018-08-04T02:22:28.312Z,84.88
2018-08-04T02:24:58.708Z,84.51
2018-08-04T02:27:30.189Z,85.04
2018-08-04T02:29:59.633Z,84.26
2018-08-04T02:32:32.765Z,84.84
2018-08-04T02:35:02.237Z,84.80
2018-08-04T02:37:31.410Z,84.78
2018-08-04T02:40:00.894Z,84.71
2018-08-04T02:42:30.369Z,85.01
2018-08-04T02:44:59.804Z,84.49
2018-08-04T02:47:29.247Z,84.53
2018-08-04T02:49:59.297Z,85.17
2018-08-04T02:52:28.683Z,84.59
2018-08-04T02:54:58.199Z,84.63
2018-08-04T02:57:27.303Z,84.75
2018-08-04T02:59:56.899Z,85.04
2018-08-04T03:02:26.375Z,85.63
2018-08-04T03:04:56.084Z,85.33
2018-08-04T03:07:25.556Z,85.66
2018-08-04T03:09:55.021Z,86.22
2018-08-04T03:12:24.494Z,86.44
2018-08-04T03:14:53.946Z,86.61
2018-08-04T03:17:23.476Z,86.59
2018-08-04T03:19:52.938Z,86.19
2018-08-04T03:22:22.361Z,86.18
2018-08-04T03:24:51.571Z,86.26
2018-08-04T03:27:21.044Z,86.79
2018-08-04T03:29:50.512Z,86.42
2018-08-04T03:32:19.913Z,86.08
2018-08-04T03:34:49.490Z,86.36
2018-08-04T03:37:19.098Z,86.41
2018-08-04T03:39:48.218Z,86.26
2018-08-04T03:42:17.718Z,86.60
2018-08-04T03:44:47.308Z,86.69
2018-08-04T03:47:16.472Z,86.15
2018-08-04T03:49:46.516Z,86.07
2018-08-04T03:52:15.670Z,86.16
2018-08-04T03:54:45.078Z,86.63
2018-08-04T03:57:14.472Z,87.12
2018-08-04T03:59:44.095Z,86.60
2018-08-04T04:02:13.558Z,86.39
2018-08-04T04:04:43.070Z,87.32
2018-08-04T04:07:12.491Z,87.02
2018-08-04T04:09:42.444Z,87.62
2018-08-04T04:12:11.906Z,87.81
2018-08-04T04:14:41.408Z,87.59
2018-08-04T04:17:10.996Z,87.55
2018-08-04T04:19:40.101Z,87.33
2018-08-04T04:22:09.486Z,87.30
2018-08-04T04:24:38.911Z,86.89
2018-08-04T04:27:08.070Z,87.30
2018-08-04T04:29:37.481Z,87.31
2018-08-04T04:32:07.623Z,87.82
2018-08-04T04:34:37.048Z,88.31
2018-08-04T04:37:06.515Z,88.08
2018-08-04T04:39:35.909Z,88.38
2018-08-04T04:42:11.847Z,88.42
2018-08-04T04:44:41.311Z,88.49
2018-08-04T04:47:10.480Z,88.89
2018-08-04T04:49:39.881Z,88.99
2018-08-04T04:52:09.326Z,88.62
2018-08-04T04:54:38.801Z,88.60
2018-08-04T04:57:08.297Z,88.96
2018-08-04T04:59:37.734Z,88.62
2018-08-04T05:02:07.242Z,89.08
2018-08-04T05:04:36.682Z,88.99
2018-08-04T05:07:06.157Z,89.74
2018-08-04T05:09:35.637Z,89.54
2018-08-04T05:12:05.244Z,89.57
2018-08-04T05:14:34.636Z,89.04
2018-08-04T05:17:04.118Z,88.53
2018-08-04T05:19:33.732Z,88.58
2018-08-04T05:22:03.191Z,88.85
2018-08-04T05:24:32.615Z,88.62
2018-08-04T05:27:02.153Z,88.75
2018-08-04T05:29:31.593Z,88.43
2018-08-04T05:32:01.060Z,89.05
2018-08-04T05:34:30.530Z,88.82
2018-08-04T05:37:00.038Z,88.10
2018-08-04T05:39:29.496Z,88.48
2018-08-04T05:41:59.025Z,87.73
2018-08-04T05:44:28.904Z,87.23
2018-08-04T05:46:58.392Z,87.46
2018-08-04T05:49:27.781Z,87.57
2018-08-04T05:51:57.161Z,86.98
2018-08-04T05:54:26.594Z,87.04
2018-08-04T05:56:55.997Z,86.85
2018-08-04T05:59:25.505Z,87.27
2018-08-04T06:01:54.981Z,86.35
2018-08-04T06:04:24.485Z,87.06
2018-08-04T06:06:53.664Z,86.45
2018-08-04T06:09:23.082Z,85.96
2018-08-04T06:11:53.589Z,86.02
2018-08-04T06:14:23.178Z,86.76
2018-08-04T06:16:52.564Z,86.31
2018-08-04T06:19:21.926Z,85.28
2018-08-04T06:21:51.302Z,85.36
2018-08-04T06:24:20.660Z,85.23
2018-08-04T06:26:50.026Z,85.84
2018-08-04T06:29:19.884Z,85.63
2018-08-04T06:31:49.244Z,85.98
2018-08-04T06:34:18.649Z,85.26
2018-08-04T06:36:48.074Z,84.52
2018-08-04T06:39:17.467Z,84.98
2018-08-04T06:41:46.881Z,84.99
2018-08-04T06:44:16.259Z,83.85
2018-08-04T06:46:45.632Z,84.96
2018-08-04T06:49:15.526Z,84.41
2018-08-04T06:51:44.888Z,84.67
2018-08-04T06:54:14.261Z,83.78
2018-08-04T06:56:43.642Z,83.79
2018-08-04T06:59:13.004Z,83.91
2018-08-04T07:01:42.669Z,84.10
2018-08-04T07:04:12.032Z,84.02
2018-08-04T07:06:41.132Z,84.64
2018-08-04T07:09:10.857Z,84.36
2018-08-04T07:11:40.236Z,84.25
2018-08-04T07:14:09.459Z,84.71
2018-08-04T07:16:39.102Z,84.41
2018-08-04T07:19:08.493Z,83.87
2018-08-04T07:21:37.897Z,83.81
2018-08-04T07:24:07.300Z,83.68
2018-08-04T07:26:36.668Z,83.24
2018-08-04T07:29:05.900Z,82.72
2018-08-04T07:31:35.229Z,81.96
2018-08-04T07:34:04.686Z,82.37
2018-08-04T07:36:34.132Z,82.53
2018-08-04T07:39:04.296Z,82.97
2018-08-04T07:41:33.720Z,82.30
2018-08-04T07:44:03.464Z,81.22
2018-08-04T07:46:32.843Z,80.76
2018-08-04T07:49:02.276Z,80.61
2018-08-04T07:51:31.398Z,80.42
2018-08-04T07:54:01.497Z,80.21
2018-08-04T07:56:30.880Z,78.32
2018-08-04T07:59:00.268Z,79.10
2018-08-04T08:01:29.629Z,78.72
2018-08-04T08:03:59.030Z,78.00
2018-08-04T08:06:28.440Z,77.54
2018-08-04T08:08:57.814Z,76.65
2018-08-04T08:11:27.202Z,76.89
2018-08-04T08:13:56.522Z,75.87
2018-08-04T08:16:25.922Z,75.47
2018-08-04T08:18:55.287Z,73.23
2018-08-04T08:21:27.651Z,69.77
2018-08-04T08:23:57.082Z,70.91
2018-08-04T08:26:26.483Z,71.72
2018-08-04T08:28:55.861Z,72.56
2018-08-04T08:31:25.290Z,68.01
2018-08-04T08:33:54.658Z,68.17
2018-08-04T08:36:24.045Z,70.33
2018-08-04T08:38:53.435Z,67.33
2018-08-04T08:41:22.857Z,67.03
2018-08-04T08:43:52.523Z,68.18
2018-08-04T08:46:21.885Z,68.65
2018-08-04T08:48:51.264Z,64.25
2018-08-04T08:51:20.686Z,66.84
2018-08-04T08:53:50.052Z,64.25
2018-08-04T08:56:19.512Z,63.90
2018-08-04T08:58:48.845Z,62.04
2018-08-04T09:01:18.254Z,61.87
2018-08-04T09:03:47.310Z,65.16
2018-08-04T09:06:16.732Z,63.82
2018-08-04T09:08:45.853Z,61.11
2018-08-04T09:11:14.938Z,61.48
2018-08-04T09:13:44.333Z,59.24
2018-08-04T09:16:13.434Z,60.41
2018-08-04T09:18:42.527Z,61.89
2018-08-04T09:21:11.925Z,58.97
2018-08-04T09:23:41.049Z,60.67
2018-08-04T09:26:10.457Z,62.04
2018-08-04T09:28:39.863Z,62.04
2018-08-04T09:31:09.241Z,62.03
2018-08-04T09:33:38.319Z,60.15
2018-08-04T09:36:07.822Z,62.53
2018-08-04T09:38:37.177Z,59.72
2018-08-04T09:41:06.608Z,57.62
2018-08-04T09:43:36.003Z,56.34
2018-08-04T09:46:05.662Z,55.18
2018-08-04T09:48:34.777Z,55.15
2018-08-04T09:51:04.180Z,58.47
2018-08-04T09:53:33.600Z,55.25
2018-08-04T09:56:03.100Z,56.66
2018-08-04T09:58:32.473Z,57.55
2018-08-04T10:01:07.068Z,57.07
2018-08-04T10:03:36.430Z,53.37
2018-08-04T10:06:05.917Z,53.80
2018-08-04T10:08:34.992Z,53.20
2018-08-04T10:11:04.435Z,50.34
2018-08-04T10:13:33.856Z,51.99
2018-08-04T10:16:03.262Z,53.30
2018-08-04T10:18:32.709Z,52.03
2018-08-04T10:21:02.100Z,54.25
2018-08-04T10:23:31.544Z,54.67
2018-08-04T10:26:03.446Z,53.38
2018-08-04T10:28:32.531Z,53.00
2018-08-04T10:31:02.557Z,51.45
2018-08-04T10:33:31.945Z,51.65
2018-08-04T10:36:01.350Z,49.84
2018-08-04T10:38:30.756Z,51.15
2018-08-04T10:41:00.107Z,49.93
2018-08-04T10:43:29.530Z,50.70
2018-08-04T10:45:58.940Z,52.47
2018-08-04T10:48:28.349Z,51.08
2018-08-04T10:50:57.767Z,52.15
2018-08-04T10:53:27.158Z,49.91
2018-08-04T10:55:56.265Z,50.34
2018-08-04T10:58:25.665Z,49.73
2018-08-04T11:00:55.572Z,49.74
2018-08-04T11:03:24.958Z,48.88
2018-08-04T11:05:55.070Z,49.85
2018-08-04T11:08:24.527Z,49.71
2018-08-04T11:10:53.939Z,49.77
2018-08-04T11:13:23.349Z,50.74
2018-08-04T11:15:52.726Z,52.48
2018-08-04T11:18:22.087Z,50.29
2018-08-04T11:20:51.508Z,48.82
2018-08-04T11:23:20.944Z,51.39
2018-08-04T11:25:50.338Z,49.71
2018-08-04T11:28:19.767Z,47.21
2018-08-04T11:30:49.197Z,46.53
2018-08-04T11:33:18.488Z,46.76
2018-08-04T11:35:47.856Z,46.79
2018-08-04T11:38:17.280Z,48.30
2018-08-04T11:40:47.030Z,47.75
2018-08-04T11:43:16.737Z,49.16
2018-08-04T11:45:46.206Z,48.34
2018-08-04T11:48:15.627Z,48.66
2018-08-04T11:50:45.022Z,46.77
2018-08-04T11:53:14.426Z,46.88
2018-08-04T11:55:43.805Z,46.91
2018-08-04T11:58:13.212Z,47.93
2018-08-04T12:00:42.839Z,47.64
2018-08-04T12:03:12.252Z,46.89
2018-08-04T12:05:41.632Z,47.57
2018-08-04T12:08:11.017Z,46.99
2018-08-04T12:10:40.422Z,47.13
2018-08-04T12:13:09.490Z,48.16
2018-08-04T12:15:38.898Z,45.50
2018-08-04T12:18:08.374Z,45.18
2018-08-04T12:20:37.706Z,47.37
2018-08-04T12:23:07.145Z,46.37
2018-08-04T12:25:37.378Z,46.39
2018-08-04T12:28:06.789Z,46.94
2018-08-04T12:30:36.182Z,46.84
2018-08-04T12:33:05.788Z,47.09
2018-08-04T12:35:35.159Z,45.97
2018-08-04T12:38:04.657Z,46.79
2018-08-04T12:40:34.047Z,46.73
2018-08-04T12:43:03.437Z,45.76
2018-08-04T12:45:32.871Z,46.17
2018-08-04T12:48:02.202Z,46.71
2018-08-04T12:50:31.577Z,45.27
2018-08-04T12:53:01.268Z,46.00
2018-08-04T12:55:30.612Z,45.61
2018-08-04T12:57:59.983Z,44.99
2018-08-04T13:00:29.365Z,43.84
2018-08-04T13:02:58.779Z,44.34
2018-08-04T13:05:28.156Z,43.44
2018-08-04T13:07:57.573Z,43.53
2018-08-04T13:10:26.934Z,46.07
2018-08-04T13:12:56.312Z,44.19
2018-08-04T13:15:25.689Z,42.58
2018-08-04T13:17:55.092Z,42.29
2018-08-04T13:20:24.500Z,43.19
2018-08-04T13:22:53.900Z,41.93
2018-08-04T13:25:23.286Z,42.22
2018-08-04T13:27:52.777Z,42.90
2018-08-04T13:30:21.961Z,43.10
2018-08-04T13:32:51.306Z,42.26
2018-08-04T13:35:20.681Z,42.53
2018-08-04T13:37:49.780Z,41.19
2018-08-04T13:40:19.159Z,41.77
2018-08-04T13:42:48.551Z,40.74
2018-08-04T13:45:17.986Z,41.11
2018-08-04T13:47:47.390Z,42.15
2018-08-04T13:50:16.846Z,39.92
2018-08-04T13:52:45.932Z,40.42
2018-08-04T13:55:15.400Z,38.51
2018-08-04T13:57:44.499Z,39.71
2018-08-04T14:00:13.892Z,39.54
2018-08-04T14:02:43.312Z,39.35
2018-08-04T14:05:12.425Z,39.53
2018-08-04T14:07:41.834Z,38.58
2018-08-04T14:10:11.254Z,39.65
2018-08-04T14:12:40.684Z,40.29
2018-08-04T14:15:10.074Z,41.13
2018-08-04T14:17:39.508Z,40.23
2018-08-04T14:20:08.894Z,37.63
2018-08-04T14:22:38.285Z,40.16
2018-08-04T14:25:07.665Z,40.57
2018-08-04T14:27:37.070Z,38.63
2018-08-04T14:30:09.575Z,38.42
2018-08-04T14:32:38.964Z,38.18
2018-08-04T14:35:08.338Z,38.87
2018-08-04T14:37:37.742Z,41.24
2018-08-04T14:40:07.817Z,41.71
2018-08-04T14:42:37.253Z,42.49
2018-08-04T14:45:06.613Z,40.75
2018-08-04T14:47:36.060Z,39.84
2018-08-04T14:50:05.785Z,40.51
2018-08-04T14:52:35.196Z,40.97
2018-08-04T14:55:04.678Z,41.24
2018-08-04T14:57:34.067Z,39.99
2018-08-04T15:00:03.489Z,39.75
2018-08-04T15:02:32.916Z,39.27
2018-08-04T15:05:02.729Z,38.83
2018-08-04T15:07:31.980Z,37.69
2018-08-04T15:10:01.389Z,38.20
2018-08-04T15:12:30.738Z,38.90
2018-08-04T15:15:00.732Z,37.02
2018-08-04T15:17:30.122Z,38.70
2018-08-04T15:19:59.575Z,39.04
2018-08-04T15:22:29.495Z,38.67
2018-08-04T15:24:59.009Z,36.23
2018-08-04T15:27:28.389Z,38.22
2018-08-04T15:29:57.741Z,36.81
2018-08-04T15:32:27.098Z,36.89
2018-08-04T15:34:56.507Z,39.20
2018-08-04T15:37:25.969Z,37.89
2018-08-04T15:39:55.409Z,37.07
2018-08-04T15:42:24.812Z,36.89
2018-08-04T15:44:54.171Z,36.90
2018-08-04T15:47:24.070Z,37.58
2018-08-04T15:49:53.686Z,36.35
2018-08-04T15:52:23.130Z,36.52
2018-08-04T15:54:52.508Z,36.99
2018-08-04T15:57:21.952Z,36.94
2018-08-04T15:59:51.080Z,38.00
2018-08-04T16:02:20.510Z,37.10
2018-08-04T16:04:49.881Z,38.26
2018-08-04T16:07:19.301Z,37.81
2018-08-04T16:09:48.666Z,37.86
2018-08-04T16:12:18.044Z,38.14
2018-08-04T16:14:47.657Z,36.77
2018-08-04T16:17:17.004Z,38.02
2018-08-04T16:19:46.369Z,38.54
2018-08-04T16:22:15.773Z,38.54
2018-08-04T16:24:45.132Z,39.16
2018-08-04T16:27:15.010Z,39.15
2018-08-04T16:29:44.362Z,39.13
2018-08-04T16:32:13.701Z,37.89
2018-08-04T16:34:42.816Z,37.74
2018-08-04T16:37:12.210Z,38.73
2018-08-04T16:39:41.582Z,40.01
2018-08-04T16:42:11.433Z,38.84
2018-08-04T16:44:40.855Z,39.00
2018-08-04T16:47:10.234Z,38.78
2018-08-04T16:49:39.585Z,38.42
2018-08-04T16:52:08.977Z,40.69
2018-08-04T16:54:38.332Z,38.11
2018-08-04T16:57:08.231Z,37.62
2018-08-04T16:59:37.573Z,39.16
2018-08-04T17:02:06.712Z,39.16
2018-08-04T17:04:36.062Z,38.35
2018-08-04T17:07:06.056Z,39.23
2018-08-04T17:09:35.454Z,38.39
2018-08-04T17:12:04.921Z,39.15
2018-08-04T17:14:34.289Z,37.75
2018-08-04T17:17:03.421Z,37.70
2018-08-04T17:19:32.823Z,36.94
2018-08-04T17:22:02.337Z,37.96
2018-08-04T17:24:31.719Z,37.40
2018-08-04T17:27:01.117Z,38.62
2018-08-04T17:29:30.194Z,37.63
2018-08-04T17:31:59.649Z,37.18
2018-08-04T17:34:29.469Z,36.95
2018-08-04T17:36:58.817Z,37.17
2018-08-04T17:39:28.195Z,37.23
2018-08-04T17:41:57.669Z,37.32
2018-08-04T17:44:27.074Z,37.83
2018-08-04T17:46:56.432Z,38.50
2018-08-04T17:49:26.108Z,36.64
2018-08-04T17:51:55.553Z,37.63
2018-08-04T17:54:25.006Z,38.30
2018-08-04T17:56:54.566Z,40.26
2018-08-04T17:59:24.156Z,39.90
2018-08-04T18:01:53.603Z,38.45
2018-08-04T18:04:22.965Z,37.54
2018-08-04T18:06:52.458Z,37.32
2018-08-04T18:09:21.950Z,38.77
2018-08-04T18:11:51.858Z,38.95
2018-08-04T18:14:21.248Z,40.81
2018-08-04T18:16:50.760Z,39.95
2018-08-04T18:19:20.111Z,40.65
2018-08-04T18:21:50.937Z,39.70
2018-08-04T18:24:20.813Z,39.91
2018-08-04T18:26:50.430Z,40.60
2018-08-04T18:29:19.836Z,41.08
2018-08-04T18:31:49.308Z,39.34
2018-08-04T18:34:19.265Z,39.13
2018-08-04T18:36:48.617Z,39.22
2018-08-04T18:39:18.021Z,41.06
2018-08-04T18:41:47.396Z,39.59
2018-08-04T18:44:16.807Z,41.30
2018-08-04T18:46:46.241Z,41.46
2018-08-04T18:49:15.345Z,41.57
2018-08-04T18:51:44.761Z,41.30
2018-08-04T18:54:13.847Z,42.20
2018-08-04T18:56:43.230Z,42.73
2018-08-04T18:59:12.633Z,42.28
2018-08-04T19:01:42.028Z,42.03
2018-08-04T19:04:11.449Z,43.12
2018-08-04T19:06:40.841Z,43.41
2018-08-04T19:09:11.554Z,44.03
2018-08-04T19:11:41.146Z,44.44
2018-08-04T19:14:11.048Z,45.20
2018-08-04T19:16:40.446Z,45.21
2018-08-04T19:19:09.859Z,45.04
2018-08-04T19:21:39.355Z,45.85
2018-08-04T19:24:08.751Z,45.18
2018-08-04T19:26:37.862Z,45.10
2018-08-04T19:29:07.240Z,44.78
2018-08-04T19:31:36.667Z,45.33
2018-08-04T19:34:06.208Z,46.02
2018-08-04T19:36:35.586Z,46.46
2018-08-04T19:39:07.542Z,46.20
2018-08-04T19:41:36.915Z,46.95
2018-08-04T19:44:07.236Z,46.71
2018-08-04T19:46:36.694Z,46.66
2018-08-04T19:49:06.090Z,46.50
2018-08-04T19:51:35.452Z,46.97
2018-08-04T19:54:04.821Z,47.70
2018-08-04T19:56:34.230Z,47.54
2018-08-04T19:59:03.856Z,47.43
2018-08-04T20:01:33.262Z,48.06
2018-08-04T20:04:02.675Z,48.85
2018-08-04T20:06:32.151Z,48.86
2018-08-04T20:09:01.508Z,48.62
2018-08-04T20:11:30.664Z,48.97
2018-08-04T20:14:00.004Z,49.62
2018-08-04T20:16:29.387Z,49.48
2018-08-04T20:18:58.797Z,49.80
2018-08-04T20:21:28.217Z,49.74
2018-08-04T20:23:57.328Z,50.12
2018-08-04T20:26:26.765Z,50.58
2018-08-04T20:28:56.214Z,52.76
2018-08-04T20:31:25.598Z,53.21
2018-08-04T20:33:54.999Z,53.49
2018-08-04T20:36:24.394Z,53.47
2018-08-04T20:38:53.756Z,53.61
2018-08-04T20:41:23.128Z,54.06
2018-08-04T20:43:52.539Z,54.46
2018-08-04T20:46:21.655Z,54.59
2018-08-04T20:48:50.993Z,55.23
2018-08-04T20:51:20.381Z,54.77
2018-08-04T20:53:49.734Z,55.76
2018-08-04T20:56:19.120Z,55.65
2018-08-04T20:58:48.648Z,56.30
2018-08-04T21:02:26.345Z,56.49
2018-08-04T21:04:55.745Z,56.39
2018-08-04T21:07:25.117Z,56.40
2018-08-04T21:09:54.841Z,57.54
2018-08-04T21:12:24.220Z,56.99
2018-08-04T21:14:53.610Z,57.68
2018-08-04T21:17:22.989Z,56.58
2018-08-04T21:19:52.391Z,56.88
2018-08-04T21:22:21.775Z,57.18
2018-08-04T21:24:51.258Z,57.97
2018-08-04T21:27:20.649Z,58.09
2018-08-04T21:29:50.048Z,57.78
2018-08-04T21:32:19.448Z,58.25
2018-08-04T21:34:48.814Z,58.45
2018-08-04T21:37:18.184Z,58.68
2018-08-04T21:39:47.545Z,57.90
2018-08-04T21:42:16.952Z,58.32
2018-08-04T21:44:46.364Z,59.12
2018-08-04T21:47:15.712Z,59.67
2018-08-04T21:49:45.093Z,60.19
2018-08-04T21:52:14.481Z,60.45
2018-08-04T21:54:44.874Z,60.43
2018-08-04T21:57:14.736Z,60.26
2018-08-04T21:59:44.102Z,60.15
2018-08-04T22:02:13.202Z,61.45
2018-08-04T22:04:42.596Z,60.98
2018-08-04T22:07:54.430Z,61.80
2018-08-04T22:10:23.951Z,61.42
2018-08-04T22:12:53.936Z,61.91
2018-08-04T22:15:23.293Z,61.94
2018-08-04T22:17:52.655Z,61.83
2018-08-04T22:20:22.818Z,61.57
2018-08-04T22:22:52.351Z,62.79
2018-08-04T22:25:23.343Z,61.95
2018-08-04T22:27:54.201Z,62.22
2018-08-04T22:30:24.005Z,62.26
2018-08-04T22:32:53.734Z,61.81
2018-08-04T22:35:23.533Z,62.20
2018-08-04T22:37:52.901Z,61.36
2018-08-04T22:40:22.651Z,62.37
2018-08-04T22:42:52.013Z,61.91
2018-08-04T22:45:34.265Z,61.85
2018-08-04T22:48:03.648Z,62.02
2018-08-04T22:50:33.060Z,62.47
2018-08-04T22:53:02.417Z,62.33
2018-08-04T22:55:31.526Z,62.50
2018-08-04T22:58:00.885Z,63.27
2018-08-04T23:00:30.253Z,63.23
2018-08-04T23:02:59.636Z,63.94
2018-08-04T23:05:28.732Z,64.37
2018-08-04T23:07:58.160Z,64.42
2018-08-04T23:10:27.515Z,64.29
2018-08-04T23:12:57.482Z,64.24
2018-08-04T23:15:27.413Z,63.63
2018-08-04T23:17:56.786Z,64.49
2018-08-04T23:20:26.469Z,65.25
2018-08-04T23:22:55.877Z,65.45
2018-08-04T23:25:25.552Z,65.21
2018-08-04T23:27:54.949Z,65.25
2018-08-04T23:30:24.346Z,65.83
2018-08-04T23:32:54.116Z,65.96
2018-08-04T23:35:24.717Z,66.36
2018-08-04T23:37:54.410Z,65.61
2018-08-04T23:40:23.993Z,66.09
2018-08-04T23:42:53.405Z,65.74
2018-08-04T23:45:22.757Z,66.00
2018-08-04T23:47:52.105Z,65.87
2018-08-04T23:50:21.517Z,66.30
2018-08-04T23:52:50.953Z,66.92
2018-08-04T23:55:20.315Z,66.41
2018-08-04T23:57:49.733Z,67.34
